createdAt,value
2019-03-29T00:07:00.962Z,101051.68
2019-03-29T00:17:05.957Z,101048.91
2019-03-29T00:27:10.936Z,101062.03
2019-03-29T00:37:15.926Z,101059.94
2019-03-29T00:47:20.934Z,101057.72
2019-03-29T00:57:26.025Z,101051.05
2019-03-29T01:07:31.165Z,101042.98
2019-03-29T01:17:36.725Z,101038.45
2019-03-29T01:27:41.713Z,101041.54
2019-03-29T01:37:46.704Z,101045.30
2019-03-29T01:47:52.626Z,101035.61
2019-03-29T01:57:58.947Z,101047.95
2019-03-29T02:08:04.885Z,101053.74
2019-03-29T02:18:10.070Z,101054.48
2019-03-29T02:28:15.055Z,101051.72
2019-03-29T02:38:20.057Z,101038.77
2019-03-29T02:48:25.052Z,101045.52
2019-03-29T02:58:30.018Z,101047.13
2019-03-29T03:08:35.027Z,101042.83
2019-03-29T03:18:40.030Z,101035.99
2019-03-29T03:28:45.058Z,101045.52
2019-03-29T03:38:50.484Z,101058.89
2019-03-29T03:48:55.527Z,101048.25
2019-03-29T03:59:01.009Z,101049.95
2019-03-29T04:09:06.833Z,101043.64
2019-03-29T04:19:11.929Z,101049.30
2019-03-29T04:29:16.937Z,101027.61
2019-03-29T04:39:22.018Z,101041.77
2019-03-29T04:49:26.999Z,101045.30
2019-03-29T04:59:32.006Z,101060.11
2019-03-29T05:09:36.997Z,101058.34
2019-03-29T05:19:44.560Z,101053.87
2019-03-29T05:29:48.616Z,101067.61
2019-03-29T05:39:53.737Z,101060.22
2019-03-29T05:49:58.716Z,101062.12
2019-03-29T06:00:05.222Z,101055.27
2019-03-29T06:10:10.342Z,101037.37
2019-03-29T06:20:16.084Z,101037.37
2019-03-29T06:30:29.131Z,101048.48
2019-03-29T06:40:35.262Z,101055.58
2019-03-29T06:50:40.348Z,101056.11
2019-03-29T07:00:46.876Z,101055.23
2019-03-29T07:10:51.874Z,101063.12
2019-03-29T07:20:56.877Z,101062.84
2019-03-29T07:31:02.157Z,101052.61
2019-03-29T07:41:08.226Z,101049.45
2019-03-29T07:51:14.193Z,101060.92
2019-03-29T08:01:20.748Z,101052.08
2019-03-29T08:11:26.736Z,101064.53
2019-03-29T08:21:32.652Z,101068.29
2019-03-29T08:31:37.668Z,101069.09
2019-03-29T08:41:42.872Z,101060.10
2019-03-29T08:51:48.052Z,101051.44
2019-03-29T09:01:53.456Z,101054.42
2019-03-29T09:11:58.458Z,101053.71
2019-03-29T09:22:03.661Z,101039.73
2019-03-29T09:32:08.646Z,101029.14
2019-03-29T09:42:27.752Z,101018.52
2019-03-29T09:52:20.473Z,101008.16
2019-03-29T10:02:25.671Z,100994.59
2019-03-29T10:12:42.735Z,101005.44
2019-03-29T10:22:37.481Z,101017.45
2019-03-29T10:32:42.491Z,101020.96
2019-03-29T10:42:57.509Z,101014.38
2019-03-29T10:52:54.657Z,101025.05
2019-03-29T11:02:59.716Z,101026.31
2019-03-29T11:13:13.000Z,101019.17
2019-03-29T11:23:14.117Z,100993.59
2019-03-29T11:33:19.112Z,100986.49
2019-03-29T11:43:27.084Z,100958.53
2019-03-29T11:53:31.137Z,100939.13
2019-03-29T12:03:36.137Z,100954.97
2019-03-29T12:13:41.690Z,100950.58
2019-03-29T12:23:46.742Z,100941.72
2019-03-29T12:33:51.737Z,100933.02
2019-03-29T12:43:56.865Z,100921.53
2019-03-29T12:54:01.815Z,100920.91
2019-03-29T13:04:09.585Z,100912.83
2019-03-29T13:14:13.550Z,100909.30
2019-03-29T13:24:18.664Z,100898.02
2019-03-29T13:34:23.726Z,100893.80
2019-03-29T13:44:28.831Z,100881.25
2019-03-29T13:54:33.917Z,100862.78
2019-03-29T14:04:39.017Z,100865.48
2019-03-29T14:14:44.106Z,100850.20
2019-03-29T14:24:49.057Z,100832.83
2019-03-29T14:34:54.217Z,100824.78
2019-03-29T14:44:59.391Z,100820.75
2019-03-29T14:55:06.486Z,100804.82
2019-03-29T15:05:11.434Z,100797.39
2019-03-29T15:15:16.530Z,100784.41
2019-03-29T15:25:21.519Z,100777.20
2019-03-29T15:35:26.511Z,100768.50
2019-03-29T15:45:31.517Z,100762.72
2019-03-29T15:55:36.489Z,100761.75
2019-03-29T16:05:41.498Z,100765.39
2019-03-29T16:15:46.484Z,100758.97
2019-03-29T16:25:51.478Z,100761.66
2019-03-29T16:36:10.349Z,100760.01
2019-03-29T16:46:18.071Z,100757.03
2019-03-29T16:56:23.148Z,100756.30
2019-03-29T17:06:29.089Z,100749.76
2019-03-29T17:16:35.096Z,100741.93
2019-03-29T17:26:40.402Z,100744.61
2019-03-29T17:36:45.533Z,100748.14
2019-03-29T17:46:50.707Z,100730.66
2019-03-29T17:56:55.832Z,100742.03
2019-03-29T18:07:00.912Z,100739.91
2019-03-29T18:17:06.169Z,100728.56
2019-03-29T18:27:11.575Z,100727.72
2019-03-29T18:37:17.850Z,100712.88
2019-03-29T18:47:23.038Z,100707.58
2019-03-29T18:57:28.287Z,100696.16
2019-03-29T19:07:34.537Z,100687.31
2019-03-29T19:17:39.879Z,100688.55
2019-03-29T19:27:45.208Z,100684.55
2019-03-29T19:37:50.539Z,100682.30
2019-03-29T19:47:55.922Z,100684.95
2019-03-29T19:58:01.235Z,100677.28
2019-03-29T20:08:06.392Z,100683.11
2019-03-29T20:18:11.565Z,100685.00
2019-03-29T20:28:16.805Z,100691.64
2019-03-29T20:38:22.083Z,100687.41
2019-03-29T20:48:27.378Z,100696.41
2019-03-29T20:58:32.635Z,100693.34
2019-03-29T21:08:37.759Z,100693.65
2019-03-29T21:18:42.947Z,100681.23
2019-03-29T21:28:48.052Z,100676.97
2019-03-29T21:38:53.212Z,100671.47
2019-03-29T21:48:59.225Z,100668.28
2019-03-29T21:59:05.243Z,100668.63
2019-03-29T22:09:10.306Z,100656.36
2019-03-29T22:19:15.230Z,100652.11
2019-03-29T22:29:21.849Z,100650.39
2019-03-29T22:39:27.933Z,100638.64
2019-03-29T22:49:32.880Z,100630.77
2019-03-29T22:59:37.884Z,100611.93
2019-03-29T23:09:42.876Z,100611.93
2019-03-29T23:19:47.860Z,100628.01
2019-03-29T23:29:52.750Z,100612.16
2019-03-29T23:39:57.749Z,100613.52
2019-03-29T23:50:02.838Z,100607.38
